Time;durP1;ratioP1;P1;durP2;ratioP2;P2;SDS_P1;SDS_P2;PMS_P1;PMS_P2;Temp;Humidity;BMP_temperature;BMP_pressure;BME280_temperature;BME280_humidity;BME280_pressure;Samples;Min_cycle;Max_cycle;Signal;HPM_P1;HPM_P2
2021/12/12 00:00:31;;;;;;;27.85;10.68;;;;;;;3.28;95.92;102021.22;5071426;28;20024;-71
2021/12/12 00:03:02;;;;;;;25.98;10.73;;;;;;;3.27;95.90;102021.25;5072772;28;20491;-72
2021/12/12 00:05:55;;;;;;;25.13;10.48;;;;;;;3.30;95.88;102014.16;5073379;28;20056;-72
2021/12/12 00:08:23;;;;;;;25.73;11.13;;;;;;;3.27;95.84;102014.22;5068653;28;20399;-72
2021/12/12 00:10:52;;;;;;;25.50;10.95;;;;;;;3.27;95.79;102024.75;5071906;28;20079;-72
2021/12/12 00:13:20;;;;;;;;;;;;;;;3.33;95.68;102014.06;5066746;28;20433;-71
2021/12/12 00:15:46;;;;;;;28.92;9.70;;;;;;;3.31;95.81;102007.13;5072657;28;19908;-72
2021/12/12 00:18:11;;;;;;;21.05;9.93;;;;;;;3.33;95.72;102013.19;5072632;28;20036;-72
2021/12/12 00:20:38;;;;;;;25.73;9.13;;;;;;;3.32;95.72;102007.09;5056201;28;20037;-71
2021/12/12 00:23:05;;;;;;;23.38;9.63;;;;;;;3.33;95.73;102000.06;5032791;28;20029;-72
2021/12/12 00:25:36;;;;;;;20.58;9.38;;;;;;;3.33;95.62;102006.19;5032717;28;20053;-71
2021/12/12 00:28:03;;;;;;;23.52;9.35;;;;;;;3.36;95.41;102004.38;5032665;28;20021;-71
2021/12/12 00:30:28;;;;;;;19.83;9.02;;;;;;;3.38;95.63;102005.19;5032950;28;20034;-71
2021/12/12 00:32:54;;;;;;;26.23;9.18;;;;;;;3.38;95.69;101992.94;5032635;28;20037;-71
2021/12/12 00:35:22;;;;;;;27.50;10.23;;;;;;;3.38;95.62;101997.31;5032751;28;20021;-72
2021/12/12 00:37:52;;;;;;;22.83;8.75;;;;;;;3.38;95.53;101987.69;5032518;28;20025;-72
2021/12/12 00:40:28;;;;;;;25.30;9.77;;;;;;;3.41;95.42;101990.22;5032571;28;20029;-71
2021/12/12 00:42:58;;;;;;;28.50;9.25;;;;;;;3.41;95.51;101992.84;5032316;28;20061;-70
2021/12/12 00:45:24;;;;;;;28.08;9.75;;;;;;;3.43;95.55;101992.78;5032543;28;20454;-72
2021/12/12 00:47:49;;;;;;;24.35;8.52;;;;;;;3.43;95.61;101987.53;5032332;28;20025;-72
2021/12/12 00:50:26;;;;;;;25.10;9.10;;;;;;;3.43;95.72;101977.91;5032264;28;20045;-72
2021/12/12 00:52:52;;;;;;;24.77;9.88;;;;;;;3.44;95.69;101987.50;5036692;28;20033;-72
2021/12/12 00:55:18;;;;;;;21.67;9.07;;;;;;;3.45;96.04;101983.97;5062398;28;20038;-73
2021/12/12 00:57:50;;;;;;;23.55;8.75;;;;;;;3.46;96.00;101983.06;5057972;28;20036;-73
2021/12/12 01:00:17;;;;;;;25.55;9.20;;;;;;;3.46;96.07;101967.28;5072323;28;20077;-72
2021/12/12 01:02:43;;;;;;;20.90;9.52;;;;;;;3.48;96.27;101959.38;5045346;28;20038;-71
2021/12/12 01:05:11;;;;;;;26.35;10.18;;;;;;;3.48;96.18;101969.88;5064261;28;20087;-71
2021/12/12 01:07:39;;;;;;;30.98;10.25;;;;;;;3.48;96.08;101962.00;5065273;28;20402;-71
2021/12/12 01:10:31;;;;;;;25.25;9.45;;;;;;;3.50;96.34;101963.69;5071351;28;20040;-70
2021/12/12 01:12:58;;;;;;;20.80;8.88;;;;;;;3.49;96.37;101959.34;5054955;28;20100;-71
2021/12/12 01:15:50;;;;;;;33.53;10.43;;;;;;;3.50;96.55;101962.84;5070039;28;20386;-71
2021/12/12 01:18:20;;;;;;;26.10;9.23;;;;;;;3.48;96.43;101960.25;5069897;28;20025;-70
2021/12/12 01:21:15;;;;;;;27.33;10.20;;;;;;;3.52;96.56;101961.88;5070806;28;20031;-70
2021/12/12 01:24:00;;;;;;;25.13;10.00;;;;;;;3.54;96.46;101968.88;5062411;28;20163;-71
2021/12/12 01:26:28;;;;;;;25.05;9.30;;;;;;;3.54;96.50;101964.47;5060317;28;20032;-70
2021/12/12 01:28:55;;;;;;;26.65;10.13;;;;;;;3.56;96.52;101967.03;5069119;28;20038;-71
2021/12/12 01:31:28;;;;;;;26.98;9.98;;;;;;;3.54;96.59;101971.50;5057192;28;20530;-71
2021/12/12 01:34:09;;;;;;;30.60;9.93;;;;;;;3.56;96.75;101967.03;5069529;28;20032;-71
2021/12/12 01:36:48;;;;;;;26.77;10.15;;;;;;;3.58;96.78;101967.84;5066903;28;20067;-70
2021/12/12 01:39:18;;;;;;;27.33;10.65;;;;;;;3.58;96.73;101967.84;5064559;28;20127;-71
2021/12/12 01:41:57;;;;;;;23.65;10.25;;;;;;;3.59;96.77;101966.97;5067846;28;20103;-70
2021/12/12 01:44:30;;;;;;;;;;;;;;;3.64;96.62;101967.69;5071459;28;20031;-70
2021/12/12 01:47:12;;;;;;;26.52;8.73;;;;;;;3.60;96.79;101961.66;5070753;28;20378;-70
2021/12/12 01:49:43;;;;;;;30.48;10.27;;;;;;;3.62;96.79;101964.25;5064825;28;20047;-71
2021/12/12 01:52:13;;;;;;;26.70;10.80;;;;;;;3.62;96.82;101964.25;5070894;28;20040;-71
2021/12/12 01:54:44;;;;;;;29.67;10.80;;;;;;;3.64;97.04;101967.69;5041290;28;20439;-71
2021/12/12 01:57:14;;;;;;;26.70;10.20;;;;;;;3.64;97.24;101959.81;5070726;28;20032;-70
2021/12/12 01:59:42;;;;;;;30.77;10.60;;;;;;;3.66;97.17;101963.25;5070779;28;20043;-70
2021/12/12 02:02:16;;;;;;;28.17;10.23;;;;;;;3.65;97.33;101956.28;5045813;28;20035;-69
2021/12/12 02:04:45;;;;;;;22.27;9.50;;;;;;;3.68;97.37;101956.16;5050289;28;20021;-69
2021/12/12 02:07:15;;;;;;;29.35;9.75;;;;;;;3.69;97.35;101956.13;5061150;28;20513;-69
2021/12/12 02:09:41;;;;;;;23.90;10.77;;;;;;;3.71;97.52;101958.69;5059409;28;20045;-69
2021/12/12 02:12:07;;;;;;;30.80;10.00;;;;;;;3.72;97.63;101957.81;5056628;28;20021;-69
2021/12/12 02:14:36;;;;;;;24.77;10.30;;;;;;;3.73;97.61;101948.16;5070665;28;20081;-69
2021/12/12 02:17:20;;;;;;;29.30;9.95;;;;;;;3.76;97.98;101948.06;5069233;28;20033;-69
2021/12/12 02:20:06;;;;;;;24.42;9.55;;;;;;;3.77;97.72;101952.44;5064259;28;20099;-69
2021/12/12 02:22:51;;;;;;;28.00;9.93;;;;;;;3.79;97.83;101951.44;5065764;28;20474;-68
2021/12/12 02:36:29;;;;;;;20.83;9.80;;;;;;;3.89;97.93;101947.63;5069027;28;20106;-68
2021/12/12 02:38:54;;;;;;;28.08;9.20;;;;;;;3.91;97.91;101946.72;5066765;28;20047;-69
2021/12/12 02:41:21;;;;;;;29.38;9.05;;;;;;;3.92;98.05;101944.06;5073156;28;20494;-68
2021/12/12 02:43:57;;;;;;;23.20;8.95;;;;;;;3.95;98.13;101937.88;5049306;28;20435;-69
2021/12/12 02:46:28;;;;;;;31.20;9.75;;;;;;;3.97;98.17;101925.53;5062223;28;20033;-68
2021/12/12 02:49:04;;;;;;;25.15;8.45;;;;;;;3.97;98.28;101918.50;5049652;28;20074;-69
2021/12/12 02:51:30;;;;;;;23.73;8.70;;;;;;;3.99;98.32;101913.19;5077155;28;20493;-70
2021/12/12 02:53:57;;;;;;;26.67;8.77;;;;;;;4.01;98.31;101911.34;5062785;28;20393;-69
2021/12/12 02:56:33;;;;;;;28.10;9.55;;;;;;;4.01;98.65;101906.09;5073832;28;20029;-68
2021/12/12 02:59:00;;;;;;;31.05;9.90;;;;;;;4.03;98.75;101914.78;5076834;28;20107;-68
2021/12/12 03:01:29;;;;;;;27.65;9.90;;;;;;;4.04;98.86;101919.16;5067466;28;20386;-67
2021/12/12 03:03:55;;;;;;;31.85;9.75;;;;;;;4.05;99.00;101915.63;5076882;28;20039;-68
2021/12/12 03:06:25;;;;;;;28.02;9.27;;;;;;;4.06;99.14;101914.69;5073385;28;20020;-68
2021/12/12 03:08:53;;;;;;;26.00;10.13;;;;;;;4.07;99.22;101911.16;5066217;28;20517;-68
2021/12/12 03:11:19;;;;;;;29.38;9.93;;;;;;;4.08;99.16;101908.50;5067374;28;20025;-68
2021/12/12 03:13:45;;;;;;;27.95;10.13;;;;;;;4.10;99.34;101913.72;5052943;28;20438;-69
2021/12/12 03:16:11;;;;;;;23.58;10.90;;;;;;;4.11;99.30;101911.94;5056780;28;20028;-68
2021/12/12 03:18:41;;;;;;;28.17;9.85;;;;;;;4.12;99.33;101911.88;5056862;28;20471;-69
2021/12/12 03:21:19;;;;;;;21.08;10.02;;;;;;;4.13;99.46;101913.63;5055240;28;20035;-69
2021/12/12 03:23:49;;;;;;;28.83;10.48;;;;;;;4.13;99.76;101916.25;5056934;28;20029;-69
2021/12/12 03:26:15;;;;;;;30.38;9.73;;;;;;;4.15;99.74;101897.78;5052545;28;20060;-68
2021/12/12 03:28:44;;;;;;;25.42;10.05;;;;;;;4.14;99.87;101896.06;5047684;28;20437;-69
2021/12/12 03:31:19;;;;;;;29.48;11.68;;;;;;;4.14;99.86;101890.81;5047635;28;20059;-69
2021/12/12 03:33:44;;;;;;;28.85;10.25;;;;;;;4.16;100.00;101894.22;5056786;28;20021;-68
2021/12/12 03:36:12;;;;;;;31.45;10.57;;;;;;;4.19;100.00;101894.13;5056690;28;20041;-69
2021/12/12 03:38:43;;;;;;;28.60;11.02;;;;;;;4.17;100.00;101881.03;5049845;28;20037;-68
2021/12/12 03:41:14;;;;;;;24.65;9.65;;;;;;;4.19;100.00;101886.25;5051787;28;20410;-68
2021/12/12 03:43:41;;;;;;;31.60;11.77;;;;;;;4.20;100.00;101888.81;5055204;28;20036;-69
2021/12/12 03:46:10;;;;;;;31.65;11.77;;;;;;;4.21;100.00;101882.66;5044631;28;20060;-68
2021/12/12 03:48:38;;;;;;;27.52;10.80;;;;;;;4.22;100.00;101884.38;5053726;28;20101;-68
2021/12/12 03:51:07;;;;;;;30.85;11.68;;;;;;;4.23;100.00;101890.47;5047907;28;20092;-68
2021/12/12 03:53:35;;;;;;;24.58;11.00;;;;;;;4.23;100.00;101880.84;5052653;28;20378;-68
2021/12/12 03:56:02;;;;;;;24.30;11.35;;;;;;;4.26;100.00;101879.88;5046485;28;20022;-69
2021/12/12 03:58:28;;;;;;;21.52;10.38;;;;;;;4.25;100.00;101883.41;5037543;28;20398;-69
2021/12/12 04:01:03;;;;;;;26.30;10.40;;;;;;;4.27;100.00;101881.59;5052989;28;20098;-69
2021/12/12 04:03:29;;;;;;;23.52;10.00;;;;;;;4.29;100.00;101878.91;5052258;28;20039;-69
2021/12/12 04:06:00;;;;;;;25.45;11.05;;;;;;;4.31;100.00;101883.19;5042275;28;20032;-69
2021/12/12 04:08:27;;;;;;;25.08;10.73;;;;;;;4.34;100.00;101892.75;5052785;28;20445;-69
2021/12/12 04:10:53;;;;;;;22.58;9.98;;;;;;;4.35;100.00;101890.09;5052572;28;20029;-69
2021/12/12 04:13:18;;;;;;;23.70;10.10;;;;;;;4.36;100.00;101890.94;5049819;28;20028;-69
2021/12/12 04:15:49;;;;;;;18.65;9.38;;;;;;;4.37;100.00;101883.00;5068284;28;20025;-69
2021/12/12 04:18:20;;;;;;;23.52;9.32;;;;;;;4.39;100.00;101881.16;5068415;28;20405;-69
2021/12/12 04:20:45;;;;;;;26.63;9.30;;;;;;;4.40;100.00;101889.94;5072563;28;20029;-69
2021/12/12 04:23:20;;;;;;;26.45;9.38;;;;;;;4.41;100.00;101889.88;5071920;28;20497;-69
2021/12/12 04:25:46;;;;;;;20.88;9.05;;;;;;;4.43;100.00;101887.22;5062211;28;20033;-69
2021/12/12 04:28:11;;;;;;;19.05;8.55;;;;;;;4.44;100.00;101889.75;5072618;28;20067;-69
2021/12/12 04:30:37;;;;;;;19.33;8.98;;;;;;;4.46;100.00;101876.56;5065434;28;20032;-70
2021/12/12 04:33:03;;;;;;;20.73;8.93;;;;;;;4.48;100.00;101890.53;5071082;28;20498;-69
2021/12/12 04:35:28;;;;;;;17.73;9.18;;;;;;;4.50;100.00;101883.44;5054498;28;20030;-69
2021/12/12 04:37:56;;;;;;;21.98;9.23;;;;;;;4.50;100.00;101891.34;5065541;28;20036;-69
2021/12/12 04:40:24;;;;;;;16.02;7.95;;;;;;;4.53;100.00;101885.09;5064945;28;20021;-69
2021/12/12 04:42:51;;;;;;;17.92;8.52;;;;;;;4.55;100.00;101891.19;5062840;28;20424;-69
2021/12/12 04:45:29;;;;;;;15.68;8.65;;;;;;;4.56;100.00;101887.63;5061403;28;20056;-69
2021/12/12 04:51:10;;;;;;;21.48;7.78;;;;;;;4.61;100.00;101894.47;5064998;28;20048;-70
2021/12/12 04:53:48;;;;;;;14.55;7.78;;;;;;;4.61;100.00;101891.84;5053541;28;20025;-69
2021/12/12 04:56:33;;;;;;;23.67;8.53;;;;;;;4.62;100.00;101890.91;5052064;28;20061;-70
2021/12/12 04:59:03;;;;;;;14.13;7.85;;;;;;;4.62;100.00;101897.94;5051693;28;20303;-69
2021/12/12 05:01:36;;;;;;;14.50;7.63;;;;;;;4.65;100.00;101897.84;5032476;28;20112;-70
2021/12/12 05:04:24;;;;;;;14.93;7.93;;;;;;;4.66;100.00;101889.03;5032179;28;20051;-70
2021/12/12 05:06:59;;;;;;;14.32;8.15;;;;;;;4.68;100.00;101897.75;5032067;28;20534;-70
2021/12/12 05:09:33;;;;;;;19.45;8.98;;;;;;;4.69;100.00;101909.13;5031680;28;20129;-69
2021/12/12 05:12:05;;;;;;;15.05;8.02;;;;;;;4.69;100.00;101902.06;5046562;28;20064;-70
2021/12/12 05:14:36;;;;;;;16.52;7.93;;;;;;;4.72;100.00;101903.75;5050643;28;20183;-70
2021/12/12 05:17:17;;;;;;;16.02;8.50;;;;;;;4.72;100.00;101912.50;5051004;28;20029;-69
2021/12/12 05:19:48;;;;;;;14.80;8.27;;;;;;;4.73;100.00;101902.81;5034013;28;20541;-70
2021/12/12 05:22:22;;;;;;;12.40;7.53;;;;;;;4.75;100.00;101912.41;5030898;28;20124;-70
2021/12/12 05:24:50;;;;;;;18.30;8.68;;;;;;;4.76;100.00;101918.50;5059110;28;20534;-70
2021/12/12 05:27:20;;;;;;;12.68;7.72;;;;;;;4.78;100.00;101924.56;5050638;28;20081;-69
2021/12/12 05:30:17;;;;;;;16.92;7.82;;;;;;;4.82;100.00;101913.03;5071233;28;20020;-70
2021/12/12 05:32:44;;;;;;;15.05;8.10;;;;;;;4.82;100.00;101921.78;5045521;28;20040;-70
2021/12/12 05:35:18;;;;;;;14.57;8.35;;;;;;;4.84;100.00;101918.25;5063269;28;20032;-70
2021/12/12 05:37:51;;;;;;;14.50;8.52;;;;;;;4.84;100.00;101910.34;5056927;28;20032;-70
2021/12/12 05:40:18;;;;;;;12.82;8.45;;;;;;;4.85;100.00;101910.31;5051305;28;20479;-70
2021/12/12 05:42:44;;;;;;;11.65;8.20;;;;;;;4.87;100.00;101910.25;5053212;28;20051;-70
2021/12/12 05:45:10;;;;;;;14.30;8.38;;;;;;;4.88;100.00;101915.47;5055151;28;20014;-70
2021/12/12 05:47:37;;;;;;;12.43;8.40;;;;;;;4.90;100.00;101913.63;5062755;28;20107;-69
2021/12/12 05:50:08;;;;;;;10.65;8.00;;;;;;;4.93;100.00;101921.41;5047899;28;20079;-69
2021/12/12 05:52:34;;;;;;;15.50;8.57;;;;;;;4.95;100.00;101924.84;5070704;28;20115;-69
2021/12/12 05:55:01;;;;;;;11.40;8.15;;;;;;;4.96;100.00;101923.94;5070631;28;20107;-71
2021/12/12 05:57:28;;;;;;;12.10;8.02;;;;;;;4.97;100.00;101928.28;5067885;28;20043;-69
2021/12/12 05:59:55;;;;;;;12.27;8.20;;;;;;;5.00;100.00;101936.06;5070996;28;20024;-68
2021/12/12 06:02:22;;;;;;;12.20;8.00;;;;;;;5.03;100.00;101928.97;5051270;28;20503;-68
2021/12/12 06:04:48;;;;;;;14.20;8.45;;;;;;;5.03;100.00;101934.25;5031203;28;20112;-69
2021/12/12 06:07:17;;;;;;;12.80;8.10;;;;;;;5.04;100.00;101933.34;5030752;28;20108;-68
2021/12/12 06:09:45;;;;;;;10.50;7.82;;;;;;;5.06;100.00;101940.25;5030059;28;20454;-69
2021/12/12 06:12:11;;;;;;;14.43;8.80;;;;;;;5.08;100.00;101942.84;5049813;28;20063;-68
2021/12/12 06:14:37;;;;;;;14.85;10.10;;;;;;;5.12;100.00;101949.72;5062840;28;20483;-69
2021/12/12 06:17:07;;;;;;;14.23;9.82;;;;;;;5.13;100.00;101949.66;5065166;28;20024;-68
2021/12/12 06:19:34;;;;;;;13.48;9.55;;;;;;;5.15;100.00;101949.63;5064668;28;20043;-69
2021/12/12 06:22:00;;;;;;;13.00;9.57;;;;;;;5.18;100.00;101954.78;5070348;28;20029;-69
2021/12/12 06:24:29;;;;;;;15.82;10.35;;;;;;;5.18;100.00;101953.00;5070586;28;20020;-68
2021/12/12 06:27:00;;;;;;;20.63;10.63;;;;;;;5.22;100.00;101943.19;5070324;28;20039;-68
2021/12/12 06:29:26;;;;;;;16.70;9.35;;;;;;;5.21;100.00;101935.34;5054123;28;20521;-68
2021/12/12 06:31:52;;;;;;;16.17;10.18;;;;;;;5.24;100.00;101944.00;5070386;28;20028;-68
2021/12/12 06:34:19;;;;;;;14.57;10.43;;;;;;;5.26;100.00;101936.03;5064392;28;20036;-69
2021/12/12 06:36:48;;;;;;;15.80;10.45;;;;;;;5.27;100.00;101941.25;5065845;28;20028;-68
2021/12/12 06:39:15;;;;;;;18.17;10.45;;;;;;;5.28;100.00;101935.09;5057526;28;20098;-68
2021/12/12 06:41:41;;;;;;;14.07;10.32;;;;;;;5.29;100.00;101936.78;5051691;28;20040;-68
2021/12/12 06:44:08;;;;;;;18.88;10.60;;;;;;;5.31;100.00;101945.50;5061449;28;20033;-67
2021/12/12 06:46:36;;;;;;;17.42;11.50;;;;;;;5.33;100.00;101943.66;5056699;28;20043;-68
2021/12/12 06:49:04;;;;;;;17.52;11.35;;;;;;;5.34;100.00;101945.38;5067383;28;20062;-67
2021/12/12 06:51:33;;;;;;;18.60;11.47;;;;;;;5.35;100.00;101941.84;5044794;28;20149;-67
2021/12/12 06:53:59;;;;;;;16.90;10.98;;;;;;;5.38;100.00;101954.91;5070655;28;20140;-67
2021/12/12 06:56:26;;;;;;;15.45;10.93;;;;;;;5.41;100.00;101946.00;5070149;28;20545;-67
2021/12/12 06:58:52;;;;;;;17.98;11.77;;;;;;;5.43;100.00;101954.72;5065711;28;20482;-68
2021/12/12 07:01:21;;;;;;;19.55;11.93;;;;;;;5.47;100.00;101958.09;5056485;28;20331;-67
2021/12/12 07:03:48;;;;;;;17.38;12.48;;;;;;;5.46;100.00;101953.75;5069906;28;20028;-67
2021/12/12 07:06:18;;;;;;;17.33;11.50;;;;;;;5.48;100.00;101951.91;5070065;28;20063;-68
2021/12/12 07:08:44;;;;;;;20.52;12.10;;;;;;;5.50;100.00;101955.38;5066916;28;20134;-68
2021/12/12 07:11:09;;;;;;;18.65;12.63;;;;;;;5.51;100.00;101954.44;5061658;28;20045;-67
2021/12/12 07:13:35;;;;;;;21.45;12.27;;;;;;;5.52;100.00;101957.00;5063947;28;20029;-67
2021/12/12 07:16:03;;;;;;;19.40;12.30;;;;;;;5.56;100.00;101958.63;5070060;28;20429;-67
2021/12/12 07:18:32;;;;;;;19.48;11.57;;;;;;;5.56;100.00;101957.75;5061827;28;20035;-68
2021/12/12 07:21:07;;;;;;;20.50;14.43;;;;;;;5.59;100.00;101952.38;5071588;28;20020;-68
2021/12/12 07:23:34;;;;;;;19.40;12.93;;;;;;;5.62;100.00;101965.44;5061459;28;20029;-68
2021/12/12 07:26:01;;;;;;;20.20;12.75;;;;;;;5.63;100.00;101959.25;5071789;28;20120;-67
2021/12/12 07:28:30;;;;;;;22.02;13.18;;;;;;;5.65;100.00;101961.84;5059878;28;20436;-68
2021/12/12 07:31:02;;;;;;;21.23;12.82;;;;;;;5.63;100.00;101961.88;5073546;28;20025;-68
2021/12/12 07:33:30;;;;;;;23.08;12.80;;;;;;;5.67;100.00;101960.84;5063298;28;20437;-68
2021/12/12 07:35:59;;;;;;;22.33;12.18;;;;;;;5.68;100.00;101959.06;5073261;28;20120;-68
2021/12/12 07:38:25;;;;;;;21.23;12.85;;;;;;;5.70;100.00;101963.38;5065376;28;20588;-68
2021/12/12 07:40:51;;;;;;;19.50;12.48;;;;;;;5.72;100.00;101963.31;5073312;28;20086;-69
2021/12/12 07:43:17;;;;;;;19.73;12.85;;;;;;;5.73;100.00;101959.78;5059588;28;20032;-69
2021/12/12 07:45:42;;;;;;;27.77;13.57;;;;;;;5.75;100.00;101976.38;5059070;28;20039;-68
2021/12/12 07:48:09;;;;;;;22.55;13.70;;;;;;;5.75;100.00;101971.94;5066785;28;20029;-68
2021/12/12 07:50:37;;;;;;;25.13;14.95;;;;;;;5.77;100.00;101969.25;5064216;28;20502;-67
2021/12/12 07:53:02;;;;;;;26.77;14.70;;;;;;;5.80;100.00;101978.84;5062880;28;20055;-68
2021/12/12 07:55:27;;;;;;;23.30;14.23;;;;;;;5.81;100.00;101973.53;5068909;28;20055;-68
2021/12/12 07:57:53;;;;;;;21.88;14.13;;;;;;;5.82;100.00;101974.38;5037657;28;21013;-68
2021/12/12 08:00:22;;;;;;;24.95;14.30;;;;;;;5.83;100.00;101973.44;5061889;28;20028;-68
2021/12/12 08:02:50;;;;;;;22.88;14.93;;;;;;;5.83;100.00;101970.78;5055764;28;20029;-68
2021/12/12 08:05:18;;;;;;;23.43;14.90;;;;;;;5.86;100.00;101971.56;5059240;28;20537;-68
2021/12/12 08:07:44;;;;;;;26.58;14.23;;;;;;;5.89;100.00;101984.59;5057459;28;20124;-68
2021/12/12 08:10:13;;;;;;;20.90;14.63;;;;;;;5.89;100.00;101984.59;5061922;28;20131;-68
2021/12/12 08:12:40;;;;;;;21.98;14.60;;;;;;;5.93;100.00;101982.72;5041325;28;20124;-68
2021/12/12 08:15:09;;;;;;;23.52;14.65;;;;;;;5.95;100.00;101994.06;5035680;28;20024;-68
2021/12/12 08:17:35;;;;;;;28.52;13.93;;;;;;;5.98;100.00;101991.34;5036710;28;20035;-68
2021/12/12 08:20:03;;;;;;;25.75;14.65;;;;;;;5.99;100.00;101998.31;5053362;28;20036;-68
2021/12/12 08:22:29;;;;;;;25.27;14.50;;;;;;;6.01;100.00;102000.91;5050557;28;20131;-68
2021/12/12 08:24:58;;;;;;;25.08;14.55;;;;;;;6.02;100.00;102000.84;5039784;28;20463;-68
2021/12/12 08:27:23;;;;;;;25.03;14.83;;;;;;;6.06;100.00;101998.94;5040806;28;20241;-68
2021/12/12 08:29:50;;;;;;;29.42;15.23;;;;;;;6.07;100.00;102006.78;5046626;28;20039;-68
2021/12/12 08:32:17;;;;;;;26.80;15.23;;;;;;;6.09;100.00;102012.00;5071070;28;20143;-67
2021/12/12 08:34:42;;;;;;;24.98;15.05;;;;;;;6.11;100.00;102023.34;5054182;28;20086;-68
2021/12/12 08:37:08;;;;;;;27.73;15.48;;;;;;;6.13;100.00;102020.66;5035940;28;20033;-68
2021/12/12 08:39:34;;;;;;;23.67;14.68;;;;;;;6.15;100.00;102018.84;5036491;28;20040;-67
2021/12/12 08:42:03;;;;;;;25.85;15.48;;;;;;;6.16;100.00;102031.09;5040237;28;20071;-68
2021/12/12 08:44:30;;;;;;;26.80;15.80;;;;;;;6.16;100.00;102028.47;5041088;28;20545;-70
2021/12/12 08:46:57;;;;;;;28.65;15.60;;;;;;;6.18;100.00;102016.94;5044251;28;20360;-68
2021/12/12 08:49:28;;;;;;;24.77;15.45;;;;;;;6.20;100.00;102030.94;5065652;28;20421;-68
2021/12/12 08:52:08;;;;;;;28.17;15.25;;;;;;;6.21;100.00;102027.38;5052243;28;20045;-68
2021/12/12 08:54:40;;;;;;;26.63;15.18;;;;;;;6.23;100.00;102030.81;5062466;28;20105;-68
2021/12/12 08:57:31;;;;;;;28.75;15.85;;;;;;;6.25;100.00;102034.25;5052173;28;20049;-68
2021/12/12 08:59:57;;;;;;;27.30;15.43;;;;;;;6.27;100.00;102037.66;5054712;28;20093;-68
2021/12/12 09:02:23;;;;;;;31.42;15.98;;;;;;;6.29;100.00;102040.25;5033924;28;20049;-68
2021/12/12 09:04:54;;;;;;;29.92;15.57;;;;;;;6.32;100.00;102048.06;5035594;28;20391;-68
2021/12/12 09:07:24;;;;;;;32.53;16.40;;;;;;;6.33;100.00;102052.41;5039251;28;20056;-68
2021/12/12 09:09:58;;;;;;;31.35;16.05;;;;;;;6.34;100.00;102043.56;5035808;28;20120;-68
2021/12/12 09:12:30;;;;;;;29.52;15.65;;;;;;;6.36;100.00;102038.22;5036090;28;20041;-68
2021/12/12 09:15:12;;;;;;;32.13;15.50;;;;;;;6.38;100.00;102039.91;5033315;28;20026;-68
2021/12/12 09:17:44;;;;;;;31.42;16.42;;;;;;;6.41;100.00;102038.91;5040364;28;20041;-68
2021/12/12 09:20:23;;;;;;;31.98;16.52;;;;;;;6.43;100.00;102048.50;5062544;28;20037;-68
2021/12/12 09:23:11;;;;;;;31.27;15.05;;;;;;;6.45;100.00;102051.06;5066421;28;20040;-68
2021/12/12 09:25:49;;;;;;;28.17;14.70;;;;;;;6.45;100.00;102059.84;5037952;28;20025;-68
2021/12/12 09:28:35;;;;;;;26.58;15.18;;;;;;;6.47;100.00;102060.63;5032606;28;20131;-68
2021/12/12 09:31:26;;;;;;;31.17;15.50;;;;;;;6.50;100.00;102066.72;5039123;28;20032;-68
2021/12/12 09:33:58;;;;;;;24.90;15.35;;;;;;;6.50;100.00;102066.72;5036527;28;20053;-68
2021/12/12 09:36:37;;;;;;;29.20;15.50;;;;;;;6.51;100.00;102060.50;5038077;28;20037;-68
2021/12/12 09:39:06;;;;;;;;;;;;;;;6.57;100.00;102065.56;5036377;28;20430;-68
2021/12/12 09:41:55;;;;;;;30.52;14.43;;;;;;;6.56;100.00;102063.81;5060581;28;20289;-68
2021/12/12 09:45:03;;;;;;;27.55;15.30;;;;;;;6.60;100.00;102082.13;5064501;28;20048;-68
2021/12/12 09:48:14;;;;;;;27.25;15.20;;;;;;;6.64;100.00;102067.91;5049613;28;20448;-68
2021/12/12 09:51:14;;;;;;;29.95;15.30;;;;;;;6.67;100.00;102078.31;5049008;28;20043;-71
2021/12/12 09:54:01;;;;;;;28.85;15.15;;;;;;;6.70;100.00;102082.63;5053425;28;20100;-69
2021/12/12 09:56:43;;;;;;;25.08;14.65;;;;;;;6.71;100.00;102084.34;5034919;28;20040;-70
2021/12/12 09:59:31;;;;;;;29.55;15.45;;;;;;;6.73;100.00;102084.25;5038148;28;20033;-69
2021/12/12 10:02:07;;;;;;;34.55;15.73;;;;;;;6.75;100.00;102091.22;5051136;28;20398;-68
2021/12/12 10:04:48;;;;;;;26.65;14.93;;;;;;;6.75;100.00;102083.28;5061430;28;20039;-68
2021/12/12 10:07:25;;;;;;;28.38;15.18;;;;;;;6.78;100.00;102075.25;5050162;28;20071;-68
2021/12/12 10:09:56;;;;;;;30.35;16.02;;;;;;;6.81;100.00;102077.78;5047155;28;20064;-69
2021/12/12 10:12:27;;;;;;;33.60;16.20;;;;;;;6.81;100.00;102080.41;5045853;28;20040;-68
2021/12/12 10:14:58;;;;;;;28.95;15.20;;;;;;;6.85;100.00;102084.63;5065000;28;20024;-69
2021/12/12 10:17:45;;;;;;;25.83;15.30;;;;;;;6.86;100.00;102088.13;5071757;28;20044;-68
2021/12/12 10:20:24;;;;;;;33.17;15.60;;;;;;;6.89;100.00;102076.59;5062935;28;20067;-68
2021/12/12 10:23:09;;;;;;;33.08;15.82;;;;;;;6.91;100.00;102080.91;5051871;28;20041;-68
2021/12/12 10:25:46;;;;;;;29.73;15.35;;;;;;;6.91;100.00;102080.91;5068094;28;20040;-68
2021/12/12 10:28:19;;;;;;;29.67;15.40;;;;;;;6.95;100.00;102090.41;5038630;28;20492;-68
2021/12/12 10:30:49;;;;;;;29.52;16.23;;;;;;;6.96;100.00;102084.19;5062761;28;20032;-68
2021/12/12 10:33:19;;;;;;;27.33;15.52;;;;;;;6.96;100.00;102083.31;5071417;28;20036;-68
2021/12/12 10:35:54;;;;;;;30.27;15.38;;;;;;;6.99;100.00;102085.84;5069437;28;20550;-68
2021/12/12 10:38:27;;;;;;;28.92;15.90;;;;;;;7.00;100.00;102088.41;5071288;28;20040;-68
2021/12/12 10:41:03;;;;;;;27.40;15.82;;;;;;;7.01;100.00;102084.88;5054622;28;20111;-68
2021/12/12 10:43:41;;;;;;;34.03;16.60;;;;;;;7.04;100.00;102083.84;5061433;28;20037;-69
2021/12/12 10:46:12;;;;;;;30.07;16.00;;;;;;;7.06;100.00;102086.44;5071341;28;20475;-68
2021/12/12 10:49:03;;;;;;;29.60;16.83;;;;;;;7.07;100.00;102086.38;5046973;28;20048;-68
2021/12/12 10:51:38;;;;;;;27.73;16.15;;;;;;;7.09;100.00;102087.16;5031788;28;20557;-68
2021/12/12 10:54:13;;;;;;;27.38;16.52;;;;;;;7.10;100.00;102085.41;5031511;28;20488;-68
2021/12/12 10:56:43;;;;;;;28.02;16.27;;;;;;;7.11;100.00;102085.34;5044767;28;20029;-69
2021/12/12 10:59:23;;;;;;;26.80;15.52;;;;;;;7.15;100.00;102084.28;5056141;28;20446;-69
2021/12/12 11:01:53;;;;;;;26.38;16.58;;;;;;;7.15;100.00;102084.28;5044169;28;20112;-68
2021/12/12 11:04:22;;;;;;;33.92;17.25;;;;;;;7.18;100.00;102083.31;5072752;28;20421;-68
2021/12/12 11:06:56;;;;;;;27.50;16.38;;;;;;;7.19;100.00;102090.28;5053079;28;20489;-67
2021/12/12 11:09:29;;;;;;;26.27;16.33;;;;;;;7.23;100.00;102091.88;5072668;28;20502;-67
2021/12/12 11:12:17;;;;;;;25.35;16.05;;;;;;;7.26;100.00;102096.16;5047411;28;20028;-67
2021/12/12 11:14:55;;;;;;;26.73;15.95;;;;;;;7.27;100.00;102084.69;5044959;28;20051;-67
2021/12/12 11:17:31;;;;;;;24.30;15.40;;;;;;;7.28;100.00;102083.75;5049749;28;20037;-67
2021/12/12 11:20:20;;;;;;;28.52;15.45;;;;;;;7.31;100.00;102079.22;5043820;28;20032;-67
2021/12/12 11:23:13;;;;;;;23.85;14.48;;;;;;;7.34;100.00;102084.34;5044134;28;20036;-67
2021/12/12 11:25:41;;;;;;;23.88;14.52;;;;;;;7.36;100.00;102084.28;5043005;28;20041;-69
2021/12/12 11:28:31;;;;;;;22.75;14.73;;;;;;;7.37;100.00;102075.44;5049314;28;20055;-67
2021/12/12 11:31:06;;;;;;;20.85;13.88;;;;;;;7.41;100.00;102079.66;5046998;28;20052;-67
2021/12/12 11:33:34;;;;;;;20.42;13.98;;;;;;;7.43;100.00;102067.25;5067957;28;20040;-67
2021/12/12 11:36:01;;;;;;;21.08;14.68;;;;;;;7.47;100.00;102082.03;5056470;28;20390;-67
2021/12/12 11:38:39;;;;;;;22.95;15.10;;;;;;;7.48;100.00;102081.13;5049555;28;20487;-67
2021/12/12 11:41:14;;;;;;;23.95;15.93;;;;;;;7.52;100.00;102076.53;5067737;28;20032;-67
2021/12/12 11:44:24;;;;;;;22.65;14.07;;;;;;;7.55;100.00;102085.19;5045241;28;20136;-68
2021/12/12 11:46:58;;;;;;;;;;;;;;;7.60;100.00;102085.00;5071796;28;20312;-68
2021/12/12 11:49:43;;;;;;;17.95;12.73;;;;;;;7.62;100.00;102090.22;5043739;28;20024;-67